sensor_id;sensor_type;location;lat;lon;timestamp;P1;durP1;ratioP1;P2;durP2;ratioP2
22470;SDS011;11402;51.374;6.594;2022-07-22T00:00:11;17.20;;;9.38;;
22470;SDS011;11402;51.374;6.594;2022-07-22T00:02:39;21.23;;;10.30;;
22470;SDS011;11402;51.374;6.594;2022-07-22T00:05:04;18.92;;;9.68;;
22470;SDS011;11402;51.374;6.594;2022-07-22T00:07:31;20.30;;;10.13;;
22470;SDS011;11402;51.374;6.594;2022-07-22T00:09:57;20.25;;;10.00;;
22470;SDS011;11402;51.374;6.594;2022-07-22T00:12:22;19.23;;;10.23;;
22470;SDS011;11402;51.374;6.594;2022-07-22T00:14:48;20.25;;;9.35;;
22470;SDS011;11402;51.374;6.594;2022-07-22T00:17:13;18.83;;;10.10;;
22470;SDS011;11402;51.374;6.594;2022-07-22T00:19:39;18.02;;;10.25;;
22470;SDS011;11402;51.374;6.594;2022-07-22T00:22:04;20.52;;;9.80;;
22470;SDS011;11402;51.374;6.594;2022-07-22T00:24:30;20.08;;;10.68;;
22470;SDS011;11402;51.374;6.594;2022-07-22T00:26:56;18.63;;;10.25;;
22470;SDS011;11402;51.374;6.594;2022-07-22T00:29:22;17.73;;;11.05;;
22470;SDS011;11402;51.374;6.594;2022-07-22T00:31:47;23.70;;;10.90;;
22470;SDS011;11402;51.374;6.594;2022-07-22T00:34:13;20.23;;;11.07;;
22470;SDS011;11402;51.374;6.594;2022-07-22T00:36:38;23.60;;;12.25;;
22470;SDS011;11402;51.374;6.594;2022-07-22T00:39:04;18.38;;;11.68;;
22470;SDS011;11402;51.374;6.594;2022-07-22T00:41:29;22.00;;;12.35;;
22470;SDS011;11402;51.374;6.594;2022-07-22T00:43:59;18.40;;;12.18;;
22470;SDS011;11402;51.374;6.594;2022-07-22T00:46:27;22.92;;;13.20;;
22470;SDS011;11402;51.374;6.594;2022-07-22T00:48:54;23.02;;;13.50;;
22470;SDS011;11402;51.374;6.594;2022-07-22T00:51:21;21.02;;;13.88;;
22470;SDS011;11402;51.374;6.594;2022-07-22T00:53:47;23.48;;;13.27;;
22470;SDS011;11402;51.374;6.594;2022-07-22T00:56:14;26.35;;;14.90;;
22470;SDS011;11402;51.374;6.594;2022-07-22T00:58:41;25.27;;;15.02;;
22470;SDS011;11402;51.374;6.594;2022-07-22T01:01:07;22.58;;;14.40;;
22470;SDS011;11402;51.374;6.594;2022-07-22T01:03:33;20.45;;;14.20;;
22470;SDS011;11402;51.374;6.594;2022-07-22T01:05:58;26.45;;;13.93;;
22470;SDS011;11402;51.374;6.594;2022-07-22T01:08:24;20.70;;;13.35;;
22470;SDS011;11402;51.374;6.594;2022-07-22T01:10:50;23.13;;;13.98;;
22470;SDS011;11402;51.374;6.594;2022-07-22T01:13:16;24.65;;;14.02;;
22470;SDS011;11402;51.374;6.594;2022-07-22T01:15:41;25.85;;;14.52;;
22470;SDS011;11402;51.374;6.594;2022-07-22T01:18:07;23.08;;;14.75;;
22470;SDS011;11402;51.374;6.594;2022-07-22T01:20:33;25.23;;;15.00;;
22470;SDS011;11402;51.374;6.594;2022-07-22T01:23:02;19.50;;;13.27;;
22470;SDS011;11402;51.374;6.594;2022-07-22T01:25:27;20.20;;;14.40;;
22470;SDS011;11402;51.374;6.594;2022-07-22T01:27:53;21.25;;;13.82;;
22470;SDS011;11402;51.374;6.594;2022-07-22T01:30:19;19.42;;;13.50;;
22470;SDS011;11402;51.374;6.594;2022-07-22T01:32:44;22.55;;;13.68;;
22470;SDS011;11402;51.374;6.594;2022-07-22T01:35:10;19.33;;;13.13;;
22470;SDS011;11402;51.374;6.594;2022-07-22T01:37:36;17.25;;;13.05;;
22470;SDS011;11402;51.374;6.594;2022-07-22T01:40:02;18.92;;;12.70;;
22470;SDS011;11402;51.374;6.594;2022-07-22T01:42:28;19.60;;;13.00;;
22470;SDS011;11402;51.374;6.594;2022-07-22T01:44:54;20.02;;;13.27;;
22470;SDS011;11402;51.374;6.594;2022-07-22T01:47:19;23.58;;;12.60;;
22470;SDS011;11402;51.374;6.594;2022-07-22T01:49:45;20.02;;;12.23;;
22470;SDS011;11402;51.374;6.594;2022-07-22T01:52:10;19.38;;;11.85;;
22470;SDS011;11402;51.374;6.594;2022-07-22T01:54:36;14.95;;;10.80;;
22470;SDS011;11402;51.374;6.594;2022-07-22T01:57:02;17.02;;;9.88;;
22470;SDS011;11402;51.374;6.594;2022-07-22T01:59:28;17.52;;;10.45;;
22470;SDS011;11402;51.374;6.594;2022-07-22T02:01:53;16.02;;;9.90;;
22470;SDS011;11402;51.374;6.594;2022-07-22T02:04:19;19.75;;;9.23;;
22470;SDS011;11402;51.374;6.594;2022-07-22T02:06:45;21.23;;;9.93;;
22470;SDS011;11402;51.374;6.594;2022-07-22T02:09:11;17.05;;;9.77;;
22470;SDS011;11402;51.374;6.594;2022-07-22T02:11:36;19.13;;;9.82;;
22470;SDS011;11402;51.374;6.594;2022-07-22T02:14:02;18.98;;;9.77;;
22470;SDS011;11402;51.374;6.594;2022-07-22T02:16:27;15.70;;;9.10;;
22470;SDS011;11402;51.374;6.594;2022-07-22T02:18:53;21.27;;;10.05;;
22470;SDS011;11402;51.374;6.594;2022-07-22T02:21:19;19.73;;;9.20;;
22470;SDS011;11402;51.374;6.594;2022-07-22T02:23:44;17.25;;;8.85;;
22470;SDS011;11402;51.374;6.594;2022-07-22T02:26:10;21.65;;;9.40;;
22470;SDS011;11402;51.374;6.594;2022-07-22T02:28:36;16.45;;;8.93;;
22470;SDS011;11402;51.374;6.594;2022-07-22T02:31:01;17.45;;;9.85;;
22470;SDS011;11402;51.374;6.594;2022-07-22T02:33:27;19.17;;;9.35;;
22470;SDS011;11402;51.374;6.594;2022-07-22T02:35:54;19.08;;;9.25;;
22470;SDS011;11402;51.374;6.594;2022-07-22T02:38:20;19.83;;;10.10;;
22470;SDS011;11402;51.374;6.594;2022-07-22T02:40:46;17.73;;;9.13;;
22470;SDS011;11402;51.374;6.594;2022-07-22T02:43:11;22.02;;;9.75;;
22470;SDS011;11402;51.374;6.594;2022-07-22T02:45:37;16.95;;;9.18;;
22470;SDS011;11402;51.374;6.594;2022-07-22T02:48:02;15.63;;;9.07;;
22470;SDS011;11402;51.374;6.594;2022-07-22T02:50:28;28.50;;;9.80;;
22470;SDS011;11402;51.374;6.594;2022-07-22T02:52:54;19.15;;;9.50;;
22470;SDS011;11402;51.374;6.594;2022-07-22T02:55:19;15.10;;;8.55;;
22470;SDS011;11402;51.374;6.594;2022-07-22T02:57:45;19.40;;;9.52;;
22470;SDS011;11402;51.374;6.594;2022-07-22T03:00:11;16.92;;;9.05;;
22470;SDS011;11402;51.374;6.594;2022-07-22T03:02:38;22.20;;;9.07;;
22470;SDS011;11402;51.374;6.594;2022-07-22T03:05:04;19.27;;;9.60;;
22470;SDS011;11402;51.374;6.594;2022-07-22T03:07:31;24.13;;;9.95;;
22470;SDS011;11402;51.374;6.594;2022-07-22T03:09:56;17.60;;;8.68;;
22470;SDS011;11402;51.374;6.594;2022-07-22T03:12:25;20.02;;;9.00;;
22470;SDS011;11402;51.374;6.594;2022-07-22T03:14:51;14.65;;;8.50;;
22470;SDS011;11402;51.374;6.594;2022-07-22T03:17:16;20.13;;;9.48;;
22470;SDS011;11402;51.374;6.594;2022-07-22T03:19:42;16.80;;;8.73;;
22470;SDS011;11402;51.374;6.594;2022-07-22T03:22:07;16.73;;;8.68;;
22470;SDS011;11402;51.374;6.594;2022-07-22T03:24:33;20.83;;;8.75;;
22470;SDS011;11402;51.374;6.594;2022-07-22T03:26:59;17.05;;;8.27;;
22470;SDS011;11402;51.374;6.594;2022-07-22T03:29:24;16.80;;;9.18;;
22470;SDS011;11402;51.374;6.594;2022-07-22T03:31:50;19.67;;;8.27;;
22470;SDS011;11402;51.374;6.594;2022-07-22T03:34:16;13.82;;;8.18;;
22470;SDS011;11402;51.374;6.594;2022-07-22T03:36:41;16.23;;;8.35;;
22470;SDS011;11402;51.374;6.594;2022-07-22T03:39:07;14.02;;;7.75;;
22470;SDS011;11402;51.374;6.594;2022-07-22T03:41:32;20.20;;;8.65;;
22470;SDS011;11402;51.374;6.594;2022-07-22T03:44:01;17.45;;;8.07;;
22470;SDS011;11402;51.374;6.594;2022-07-22T03:46:26;16.35;;;7.40;;
22470;SDS011;11402;51.374;6.594;2022-07-22T03:48:52;12.57;;;6.97;;
22470;SDS011;11402;51.374;6.594;2022-07-22T03:51:17;14.10;;;6.22;;
22470;SDS011;11402;51.374;6.594;2022-07-22T03:53:46;14.20;;;6.28;;
22470;SDS011;11402;51.374;6.594;2022-07-22T03:56:11;10.63;;;6.35;;
22470;SDS011;11402;51.374;6.594;2022-07-22T03:58:37;13.43;;;6.78;;
22470;SDS011;11402;51.374;6.594;2022-07-22T04:01:03;15.15;;;6.00;;
22470;SDS011;11402;51.374;6.594;2022-07-22T04:03:28;16.70;;;6.15;;
22470;SDS011;11402;51.374;6.594;2022-07-22T04:05:55;13.73;;;6.20;;
22470;SDS011;11402;51.374;6.594;2022-07-22T04:08:20;16.05;;;5.28;;
22470;SDS011;11402;51.374;6.594;2022-07-22T04:10:46;14.77;;;5.60;;
22470;SDS011;11402;51.374;6.594;2022-07-22T04:13:11;10.45;;;5.20;;
22470;SDS011;11402;51.374;6.594;2022-07-22T04:15:37;11.52;;;4.35;;
22470;SDS011;11402;51.374;6.594;2022-07-22T04:18:02;12.55;;;4.22;;
22470;SDS011;11402;51.374;6.594;2022-07-22T04:20:28;10.63;;;4.32;;
22470;SDS011;11402;51.374;6.594;2022-07-22T04:22:54;14.52;;;4.18;;
22470;SDS011;11402;51.374;6.594;2022-07-22T04:25:20;10.73;;;4.10;;
22470;SDS011;11402;51.374;6.594;2022-07-22T04:27:45;10.27;;;4.20;;
22470;SDS011;11402;51.374;6.594;2022-07-22T04:30:11;8.50;;;3.92;;
22470;SDS011;11402;51.374;6.594;2022-07-22T04:32:36;14.45;;;4.15;;
22470;SDS011;11402;51.374;6.594;2022-07-22T04:35:02;11.75;;;3.58;;
22470;SDS011;11402;51.374;6.594;2022-07-22T04:37:29;11.93;;;3.72;;
22470;SDS011;11402;51.374;6.594;2022-07-22T04:39:55;14.07;;;4.20;;
22470;SDS011;11402;51.374;6.594;2022-07-22T04:42:21;11.13;;;3.90;;
22470;SDS011;11402;51.374;6.594;2022-07-22T04:44:46;8.85;;;3.70;;
22470;SDS011;11402;51.374;6.594;2022-07-22T04:47:12;8.75;;;3.42;;
22470;SDS011;11402;51.374;6.594;2022-07-22T04:49:38;13.95;;;4.53;;
22470;SDS011;11402;51.374;6.594;2022-07-22T04:52:03;11.10;;;3.65;;
22470;SDS011;11402;51.374;6.594;2022-07-22T04:54:29;15.27;;;4.28;;
22470;SDS011;11402;51.374;6.594;2022-07-22T04:56:55;10.20;;;3.95;;
22470;SDS011;11402;51.374;6.594;2022-07-22T04:59:20;14.60;;;4.10;;
22470;SDS011;11402;51.374;6.594;2022-07-22T05:01:46;15.10;;;4.22;;
22470;SDS011;11402;51.374;6.594;2022-07-22T05:04:11;9.15;;;4.22;;
22470;SDS011;11402;51.374;6.594;2022-07-22T05:06:37;12.75;;;3.90;;
22470;SDS011;11402;51.374;6.594;2022-07-22T05:09:03;14.68;;;4.10;;
22470;SDS011;11402;51.374;6.594;2022-07-22T05:11:29;13.50;;;4.25;;
22470;SDS011;11402;51.374;6.594;2022-07-22T05:13:54;11.48;;;4.35;;
22470;SDS011;11402;51.374;6.594;2022-07-22T05:16:20;9.50;;;3.80;;
22470;SDS011;11402;51.374;6.594;2022-07-22T05:18:46;10.80;;;4.45;;
22470;SDS011;11402;51.374;6.594;2022-07-22T05:21:11;16.95;;;4.35;;
22470;SDS011;11402;51.374;6.594;2022-07-22T05:23:37;9.77;;;4.22;;
22470;SDS011;11402;51.374;6.594;2022-07-22T05:26:03;12.43;;;4.30;;
22470;SDS011;11402;51.374;6.594;2022-07-22T05:28:29;12.95;;;4.60;;
22470;SDS011;11402;51.374;6.594;2022-07-22T05:30:55;10.35;;;4.30;;
22470;SDS011;11402;51.374;6.594;2022-07-22T05:33:21;9.95;;;4.05;;
22470;SDS011;11402;51.374;6.594;2022-07-22T05:35:46;11.20;;;4.22;;
22470;SDS011;11402;51.374;6.594;2022-07-22T05:38:12;15.02;;;4.70;;
22470;SDS011;11402;51.374;6.594;2022-07-22T05:40:37;8.88;;;4.10;;
22470;SDS011;11402;51.374;6.594;2022-07-22T05:43:03;7.15;;;3.63;;
22470;SDS011;11402;51.374;6.594;2022-07-22T05:45:29;8.57;;;3.88;;
22470;SDS011;11402;51.374;6.594;2022-07-22T05:47:54;10.35;;;3.60;;
22470;SDS011;11402;51.374;6.594;2022-07-22T05:50:20;12.70;;;3.60;;
22470;SDS011;11402;51.374;6.594;2022-07-22T05:52:45;10.52;;;3.80;;
22470;SDS011;11402;51.374;6.594;2022-07-22T05:55:11;9.73;;;3.85;;
22470;SDS011;11402;51.374;6.594;2022-07-22T05:57:36;15.15;;;3.92;;
22470;SDS011;11402;51.374;6.594;2022-07-22T06:00:05;10.90;;;4.15;;
22470;SDS011;11402;51.374;6.594;2022-07-22T06:02:31;8.27;;;3.72;;
22470;SDS011;11402;51.374;6.594;2022-07-22T06:04:57;11.65;;;3.92;;
22470;SDS011;11402;51.374;6.594;2022-07-22T06:07:25;12.02;;;4.03;;
22470;SDS011;11402;51.374;6.594;2022-07-22T06:09:51;8.43;;;3.70;;
22470;SDS011;11402;51.374;6.594;2022-07-22T06:12:17;8.35;;;3.05;;
22470;SDS011;11402;51.374;6.594;2022-07-22T06:14:43;12.07;;;4.38;;
22470;SDS011;11402;51.374;6.594;2022-07-22T06:17:08;14.35;;;4.03;;
22470;SDS011;11402;51.374;6.594;2022-07-22T06:19:34;12.80;;;3.90;;
22470;SDS011;11402;51.374;6.594;2022-07-22T06:22:00;10.30;;;3.75;;
22470;SDS011;11402;51.374;6.594;2022-07-22T06:24:26;13.50;;;3.75;;
22470;SDS011;11402;51.374;6.594;2022-07-22T06:26:51;12.30;;;4.32;;
22470;SDS011;11402;51.374;6.594;2022-07-22T06:29:17;12.82;;;3.83;;
22470;SDS011;11402;51.374;6.594;2022-07-22T06:31:42;14.70;;;4.00;;
22470;SDS011;11402;51.374;6.594;2022-07-22T06:34:08;15.73;;;4.10;;
22470;SDS011;11402;51.374;6.594;2022-07-22T06:36:33;9.18;;;4.40;;
22470;SDS011;11402;51.374;6.594;2022-07-22T06:38:59;10.48;;;3.92;;
22470;SDS011;11402;51.374;6.594;2022-07-22T06:41:26;12.02;;;3.90;;
22470;SDS011;11402;51.374;6.594;2022-07-22T06:43:51;13.77;;;3.72;;
22470;SDS011;11402;51.374;6.594;2022-07-22T06:46:17;8.20;;;3.05;;
22470;SDS011;11402;51.374;6.594;2022-07-22T06:48:43;11.23;;;3.20;;
22470;SDS011;11402;51.374;6.594;2022-07-22T06:51:08;11.15;;;3.97;;
22470;SDS011;11402;51.374;6.594;2022-07-22T06:53:34;14.90;;;3.33;;
22470;SDS011;11402;51.374;6.594;2022-07-22T06:56:00;8.55;;;3.30;;
22470;SDS011;11402;51.374;6.594;2022-07-22T06:58:26;6.70;;;2.92;;
22470;SDS011;11402;51.374;6.594;2022-07-22T07:00:53;12.40;;;3.55;;
22470;SDS011;11402;51.374;6.594;2022-07-22T07:03:19;6.07;;;3.08;;
22470;SDS011;11402;51.374;6.594;2022-07-22T07:05:45;11.27;;;3.55;;
22470;SDS011;11402;51.374;6.594;2022-07-22T07:08:10;8.93;;;3.47;;
22470;SDS011;11402;51.374;6.594;2022-07-22T07:10:36;7.80;;;3.55;;
22470;SDS011;11402;51.374;6.594;2022-07-22T07:13:02;10.70;;;3.60;;
22470;SDS011;11402;51.374;6.594;2022-07-22T07:15:27;8.43;;;3.35;;
22470;SDS011;11402;51.374;6.594;2022-07-22T07:17:54;8.68;;;3.10;;
22470;SDS011;11402;51.374;6.594;2022-07-22T07:20:21;11.88;;;3.63;;
22470;SDS011;11402;51.374;6.594;2022-07-22T07:22:47;11.77;;;3.28;;
22470;SDS011;11402;51.374;6.594;2022-07-22T07:25:13;11.40;;;3.38;;
22470;SDS011;11402;51.374;6.594;2022-07-22T07:27:38;7.93;;;3.28;;
22470;SDS011;11402;51.374;6.594;2022-07-22T07:30:04;12.98;;;3.45;;
22470;SDS011;11402;51.374;6.594;2022-07-22T07:32:30;7.85;;;3.08;;
22470;SDS011;11402;51.374;6.594;2022-07-22T07:34:56;28.75;;;6.72;;
22470;SDS011;11402;51.374;6.594;2022-07-22T07:37:22;13.00;;;3.65;;
22470;SDS011;11402;51.374;6.594;2022-07-22T07:39:47;13.25;;;3.60;;
22470;SDS011;11402;51.374;6.594;2022-07-22T07:42:13;10.80;;;3.15;;
22470;SDS011;11402;51.374;6.594;2022-07-22T07:44:39;11.90;;;3.20;;
22470;SDS011;11402;51.374;6.594;2022-07-22T07:47:04;12.90;;;2.97;;
22470;SDS011;11402;51.374;6.594;2022-07-22T07:49:30;10.27;;;3.22;;
22470;SDS011;11402;51.374;6.594;2022-07-22T07:51:56;9.77;;;3.42;;
22470;SDS011;11402;51.374;6.594;2022-07-22T07:54:21;7.57;;;2.83;;
22470;SDS011;11402;51.374;6.594;2022-07-22T07:56:47;11.65;;;3.20;;
22470;SDS011;11402;51.374;6.594;2022-07-22T07:59:13;8.50;;;2.85;;
22470;SDS011;11402;51.374;6.594;2022-07-22T08:01:38;8.63;;;2.90;;
22470;SDS011;11402;51.374;6.594;2022-07-22T08:04:04;9.15;;;3.00;;
22470;SDS011;11402;51.374;6.594;2022-07-22T08:06:30;9.20;;;3.65;;
22470;SDS011;11402;51.374;6.594;2022-07-22T08:08:55;9.05;;;3.13;;
22470;SDS011;11402;51.374;6.594;2022-07-22T08:11:21;11.15;;;3.55;;
22470;SDS011;11402;51.374;6.594;2022-07-22T08:13:48;9.68;;;3.03;;
22470;SDS011;11402;51.374;6.594;2022-07-22T08:16:14;9.27;;;3.63;;
22470;SDS011;11402;51.374;6.594;2022-07-22T08:18:40;12.32;;;5.10;;
22470;SDS011;11402;51.374;6.594;2022-07-22T08:21:06;11.70;;;5.50;;
22470;SDS011;11402;51.374;6.594;2022-07-22T08:23:32;14.00;;;6.15;;
22470;SDS011;11402;51.374;6.594;2022-07-22T08:25:58;12.43;;;5.13;;
22470;SDS011;11402;51.374;6.594;2022-07-22T08:28:24;10.45;;;4.97;;
22470;SDS011;11402;51.374;6.594;2022-07-22T08:30:49;17.23;;;5.13;;
22470;SDS011;11402;51.374;6.594;2022-07-22T08:33:16;16.42;;;5.75;;
22470;SDS011;11402;51.374;6.594;2022-07-22T08:35:41;12.30;;;4.65;;
22470;SDS011;11402;51.374;6.594;2022-07-22T08:38:07;10.90;;;4.50;;
22470;SDS011;11402;51.374;6.594;2022-07-22T08:40:33;16.85;;;5.30;;
22470;SDS011;11402;51.374;6.594;2022-07-22T08:42:59;15.07;;;5.45;;
22470;SDS011;11402;51.374;6.594;2022-07-22T08:45:28;10.80;;;5.18;;
22470;SDS011;11402;51.374;6.594;2022-07-22T08:47:56;15.65;;;5.38;;
22470;SDS011;11402;51.374;6.594;2022-07-22T08:50:24;9.05;;;4.65;;
22470;SDS011;11402;51.374;6.594;2022-07-22T08:52:50;18.15;;;5.25;;
22470;SDS011;11402;51.374;6.594;2022-07-22T08:55:15;9.63;;;4.38;;
22470;SDS011;11402;51.374;6.594;2022-07-22T08:57:45;8.88;;;4.63;;
22470;SDS011;11402;51.374;6.594;2022-07-22T09:00:12;11.65;;;4.88;;
22470;SDS011;11402;51.374;6.594;2022-07-22T09:02:40;13.05;;;4.75;;
22470;SDS011;11402;51.374;6.594;2022-07-22T09:05:08;11.30;;;4.97;;
22470;SDS011;11402;51.374;6.594;2022-07-22T09:07:37;10.85;;;4.38;;
22470;SDS011;11402;51.374;6.594;2022-07-22T09:10:05;10.40;;;4.32;;
22470;SDS011;11402;51.374;6.594;2022-07-22T09:12:33;7.55;;;4.40;;
22470;SDS011;11402;51.374;6.594;2022-07-22T09:15:00;9.48;;;4.57;;
22470;SDS011;11402;51.374;6.594;2022-07-22T09:17:36;10.77;;;4.90;;
22470;SDS011;11402;51.374;6.594;2022-07-22T09:20:05;10.13;;;4.65;;
22470;SDS011;11402;51.374;6.594;2022-07-22T09:22:44;10.63;;;4.47;;
22470;SDS011;11402;51.374;6.594;2022-07-22T09:25:31;10.50;;;4.93;;
22470;SDS011;11402;51.374;6.594;2022-07-22T09:30:37;9.88;;;4.15;;
22470;SDS011;11402;51.374;6.594;2022-07-22T09:33:03;13.50;;;5.15;;
22470;SDS011;11402;51.374;6.594;2022-07-22T09:35:30;9.70;;;5.75;;
22470;SDS011;11402;51.374;6.594;2022-07-22T09:38:00;9.48;;;4.80;;
22470;SDS011;11402;51.374;6.594;2022-07-22T09:40:29;8.43;;;3.85;;
22470;SDS011;11402;51.374;6.594;2022-07-22T09:43:00;7.00;;;4.15;;
22470;SDS011;11402;51.374;6.594;2022-07-22T09:45:28;7.30;;;3.47;;
22470;SDS011;11402;51.374;6.594;2022-07-22T09:47:55;9.98;;;4.53;;
22470;SDS011;11402;51.374;6.594;2022-07-22T09:50:23;10.07;;;4.28;;
22470;SDS011;11402;51.374;6.594;2022-07-22T09:52:55;7.95;;;4.28;;
22470;SDS011;11402;51.374;6.594;2022-07-22T09:55:22;6.90;;;3.80;;
22470;SDS011;11402;51.374;6.594;2022-07-22T09:57:49;9.93;;;4.90;;
22470;SDS011;11402;51.374;6.594;2022-07-22T10:00:17;7.13;;;3.92;;
22470;SDS011;11402;51.374;6.594;2022-07-22T10:05:14;9.07;;;3.50;;
22470;SDS011;11402;51.374;6.594;2022-07-22T10:07:41;6.43;;;3.90;;
22470;SDS011;11402;51.374;6.594;2022-07-22T10:10:08;8.88;;;4.43;;
22470;SDS011;11402;51.374;6.594;2022-07-22T10:12:36;5.55;;;3.90;;
22470;SDS011;11402;51.374;6.594;2022-07-22T10:15:02;5.95;;;3.80;;
22470;SDS011;11402;51.374;6.594;2022-07-22T10:17:28;6.35;;;3.13;;
22470;SDS011;11402;51.374;6.594;2022-07-22T10:19:54;7.40;;;3.20;;
22470;SDS011;11402;51.374;6.594;2022-07-22T10:25:08;4.80;;;2.80;;
22470;SDS011;11402;51.374;6.594;2022-07-22T10:27:45;8.13;;;3.33;;
22470;SDS011;11402;51.374;6.594;2022-07-22T10:30:12;10.30;;;4.13;;
22470;SDS011;11402;51.374;6.594;2022-07-22T10:32:39;7.65;;;4.45;;
22470;SDS011;11402;51.374;6.594;2022-07-22T10:45:28;7.80;;;3.75;;
22470;SDS011;11402;51.374;6.594;2022-07-22T10:47:55;8.27;;;3.15;;
22470;SDS011;11402;51.374;6.594;2022-07-22T10:53:00;9.52;;;2.83;;
22470;SDS011;11402;51.374;6.594;2022-07-22T10:55:30;6.45;;;3.00;;
22470;SDS011;11402;51.374;6.594;2022-07-22T10:57:56;6.30;;;3.10;;
22470;SDS011;11402;51.374;6.594;2022-07-22T11:00:21;4.78;;;2.90;;
22470;SDS011;11402;51.374;6.594;2022-07-22T11:02:47;6.15;;;2.80;;
22470;SDS011;11402;51.374;6.594;2022-07-22T11:05:13;5.28;;;3.30;;
22470;SDS011;11402;51.374;6.594;2022-07-22T11:07:48;5.20;;;3.00;;
22470;SDS011;11402;51.374;6.594;2022-07-22T11:10:15;3.60;;;1.88;;
22470;SDS011;11402;51.374;6.594;2022-07-22T11:12:42;5.50;;;2.33;;
22470;SDS011;11402;51.374;6.594;2022-07-22T11:15:08;4.78;;;2.78;;
22470;SDS011;11402;51.374;6.594;2022-07-22T11:17:35;5.45;;;2.70;;
22470;SDS011;11402;51.374;6.594;2022-07-22T11:20:03;5.40;;;2.17;;
22470;SDS011;11402;51.374;6.594;2022-07-22T11:22:30;4.78;;;2.50;;
22470;SDS011;11402;51.374;6.594;2022-07-22T11:24:56;4.95;;;2.40;;
22470;SDS011;11402;51.374;6.594;2022-07-22T11:27:24;4.28;;;2.72;;
22470;SDS011;11402;51.374;6.594;2022-07-22T11:29:52;3.08;;;2.10;;
22470;SDS011;11402;51.374;6.594;2022-07-22T11:32:21;3.33;;;2.25;;
22470;SDS011;11402;51.374;6.594;2022-07-22T11:34:48;3.45;;;2.25;;
22470;SDS011;11402;51.374;6.594;2022-07-22T11:37:15;6.80;;;2.70;;
22470;SDS011;11402;51.374;6.594;2022-07-22T11:39:42;3.80;;;2.28;;
22470;SDS011;11402;51.374;6.594;2022-07-22T11:42:08;4.93;;;1.92;;
22470;SDS011;11402;51.374;6.594;2022-07-22T11:44:35;7.90;;;2.20;;
22470;SDS011;11402;51.374;6.594;2022-07-22T11:47:03;5.75;;;2.03;;
22470;SDS011;11402;51.374;6.594;2022-07-22T11:49:31;6.47;;;2.20;;
22470;SDS011;11402;51.374;6.594;2022-07-22T11:52:05;5.65;;;2.30;;
22470;SDS011;11402;51.374;6.594;2022-07-22T11:54:33;5.20;;;2.28;;
22470;SDS011;11402;51.374;6.594;2022-07-22T11:56:59;3.60;;;1.73;;
22470;SDS011;11402;51.374;6.594;2022-07-22T11:59:26;5.85;;;2.00;;
22470;SDS011;11402;51.374;6.594;2022-07-22T12:01:52;6.95;;;2.10;;
22470;SDS011;11402;51.374;6.594;2022-07-22T12:04:22;4.63;;;2.10;;
22470;SDS011;11402;51.374;6.594;2022-07-22T12:06:49;4.35;;;1.92;;
22470;SDS011;11402;51.374;6.594;2022-07-22T12:09:20;5.32;;;2.08;;
22470;SDS011;11402;51.374;6.594;2022-07-22T12:11:51;4.40;;;1.90;;
22470;SDS011;11402;51.374;6.594;2022-07-22T12:14:21;4.53;;;2.10;;
22470;SDS011;11402;51.374;6.594;2022-07-22T12:16:56;4.43;;;1.98;;
22470;SDS011;11402;51.374;6.594;2022-07-22T12:19:30;5.13;;;2.67;;
22470;SDS011;11402;51.374;6.594;2022-07-22T12:22:11;5.18;;;2.10;;
22470;SDS011;11402;51.374;6.594;2022-07-22T12:24:44;5.63;;;2.33;;
22470;SDS011;11402;51.374;6.594;2022-07-22T12:27:15;5.40;;;2.50;;
22470;SDS011;11402;51.374;6.594;2022-07-22T12:29:43;4.45;;;2.10;;
22470;SDS011;11402;51.374;6.594;2022-07-22T12:32:17;7.15;;;1.90;;
22470;SDS011;11402;51.374;6.594;2022-07-22T12:37:25;4.18;;;2.70;;
22470;SDS011;11402;51.374;6.594;2022-07-22T12:39:59;4.15;;;2.60;;
22470;SDS011;11402;51.374;6.594;2022-07-22T12:45:30;5.10;;;2.50;;
22470;SDS011;11402;51.374;6.594;2022-07-22T12:48:04;5.72;;;2.70;;
22470;SDS011;11402;51.374;6.594;2022-07-22T12:53:02;3.65;;;2.28;;
22470;SDS011;11402;51.374;6.594;2022-07-22T12:55:33;7.75;;;2.50;;
22470;SDS011;11402;51.374;6.594;2022-07-22T12:58:07;4.13;;;2.63;;
22470;SDS011;11402;51.374;6.594;2022-07-22T13:00:35;5.70;;;2.05;;
22470;SDS011;11402;51.374;6.594;2022-07-22T13:03:06;5.73;;;1.97;;
22470;SDS011;11402;51.374;6.594;2022-07-22T13:05:32;5.05;;;2.00;;
22470;SDS011;11402;51.374;6.594;2022-07-22T13:07:59;4.95;;;1.90;;
22470;SDS011;11402;51.374;6.594;2022-07-22T13:10:25;3.78;;;2.17;;
22470;SDS011;11402;51.374;6.594;2022-07-22T13:12:52;4.55;;;2.40;;
22470;SDS011;11402;51.374;6.594;2022-07-22T13:15:19;4.55;;;1.95;;
22470;SDS011;11402;51.374;6.594;2022-07-22T13:17:45;5.80;;;2.35;;
22470;SDS011;11402;51.374;6.594;2022-07-22T13:20:12;5.10;;;2.08;;
22470;SDS011;11402;51.374;6.594;2022-07-22T13:22:42;4.57;;;2.10;;
22470;SDS011;11402;51.374;6.594;2022-07-22T13:25:11;5.93;;;2.40;;
22470;SDS011;11402;51.374;6.594;2022-07-22T13:27:36;4.53;;;2.45;;
22470;SDS011;11402;51.374;6.594;2022-07-22T13:30:02;5.63;;;2.15;;
22470;SDS011;11402;51.374;6.594;2022-07-22T13:32:28;4.18;;;2.60;;
22470;SDS011;11402;51.374;6.594;2022-07-22T13:34:54;3.22;;;2.38;;
22470;SDS011;11402;51.374;6.594;2022-07-22T13:37:20;4.20;;;3.00;;
22470;SDS011;11402;51.374;6.594;2022-07-22T13:39:46;5.97;;;2.42;;
22470;SDS011;11402;51.374;6.594;2022-07-22T13:42:13;4.25;;;2.30;;
22470;SDS011;11402;51.374;6.594;2022-07-22T13:44:42;5.20;;;2.25;;
22470;SDS011;11402;51.374;6.594;2022-07-22T13:47:09;3.75;;;2.20;;
22470;SDS011;11402;51.374;6.594;2022-07-22T13:49:35;7.28;;;2.60;;
22470;SDS011;11402;51.374;6.594;2022-07-22T13:52:00;4.07;;;2.22;;
22470;SDS011;11402;51.374;6.594;2022-07-22T13:54:27;4.13;;;2.17;;
22470;SDS011;11402;51.374;6.594;2022-07-22T13:56:52;7.65;;;2.90;;
22470;SDS011;11402;51.374;6.594;2022-07-22T13:59:18;4.70;;;2.42;;
22470;SDS011;11402;51.374;6.594;2022-07-22T14:01:44;7.97;;;2.80;;
22470;SDS011;11402;51.374;6.594;2022-07-22T14:04:09;5.55;;;2.97;;
22470;SDS011;11402;51.374;6.594;2022-07-22T14:06:35;7.75;;;2.80;;
22470;SDS011;11402;51.374;6.594;2022-07-22T14:09:01;6.60;;;2.80;;
22470;SDS011;11402;51.374;6.594;2022-07-22T14:11:29;8.20;;;3.20;;
22470;SDS011;11402;51.374;6.594;2022-07-22T14:13:54;6.50;;;2.92;;
22470;SDS011;11402;51.374;6.594;2022-07-22T14:16:20;5.70;;;3.10;;
22470;SDS011;11402;51.374;6.594;2022-07-22T14:21:31;5.63;;;3.70;;
22470;SDS011;11402;51.374;6.594;2022-07-22T14:23:58;5.97;;;3.10;;
22470;SDS011;11402;51.374;6.594;2022-07-22T14:26:24;6.40;;;2.83;;
22470;SDS011;11402;51.374;6.594;2022-07-22T14:28:50;5.53;;;2.75;;
22470;SDS011;11402;51.374;6.594;2022-07-22T14:31:16;7.00;;;3.15;;
22470;SDS011;11402;51.374;6.594;2022-07-22T14:33:42;6.47;;;3.50;;
22470;SDS011;11402;51.374;6.594;2022-07-22T14:36:08;8.18;;;3.25;;
22470;SDS011;11402;51.374;6.594;2022-07-22T14:38:34;5.15;;;2.95;;
22470;SDS011;11402;51.374;6.594;2022-07-22T14:40:59;5.22;;;2.75;;
22470;SDS011;11402;51.374;6.594;2022-07-22T14:43:25;11.45;;;3.58;;
22470;SDS011;11402;51.374;6.594;2022-07-22T14:45:51;8.15;;;3.13;;
22470;SDS011;11402;51.374;6.594;2022-07-22T14:48:17;4.50;;;2.92;;
22470;SDS011;11402;51.374;6.594;2022-07-22T14:50:42;6.38;;;2.85;;
22470;SDS011;11402;51.374;6.594;2022-07-22T14:53:08;6.78;;;3.17;;
22470;SDS011;11402;51.374;6.594;2022-07-22T14:55:33;5.38;;;2.60;;
22470;SDS011;11402;51.374;6.594;2022-07-22T14:57:59;6.40;;;3.03;;
22470;SDS011;11402;51.374;6.594;2022-07-22T15:00:24;7.38;;;2.50;;
22470;SDS011;11402;51.374;6.594;2022-07-22T15:02:50;6.07;;;3.10;;
22470;SDS011;11402;51.374;6.594;2022-07-22T15:05:16;6.22;;;2.65;;